This is the latest recevied weather packets stored in our database for station/object N8AMF. If no packets are shown the sender has not sent any weather packets the latest 10 day(s).
| Time | Temp. | Humidity | Pressure | Rain* | Wind** | Luminosity | Snow |
|---|---|---|---|---|---|---|---|
| 1777362997 | 15° C | 96% | 1005.9 hPa | 0.51 mm | - | 0 W/m² | - |
| 1777362694 | 15° C | 96% | 1006.1 hPa | 0.51 mm | - | 0 W/m² | - |
| 1777362392 | 15° C | 96% | 1005.8 hPa | 0.51 mm | - | 0 W/m² | - |
| 1777362089 | 15° C | 96% | 1006.7 hPa | 1.27 mm | - | 0 W/m² | - |
| 1777361787 | 15° C | 96% | 1006.9 hPa | 1.27 mm | - | 0 W/m² | - |
| 1777361483 | 15° C | 95% | 1007.9 hPa | 0.51 mm | - | 0 W/m² | - |
| 1777361181 | 15° C | 95% | 1008.2 hPa | 0.51 mm | - | 0 W/m² | - |
| 1777360878 | 15° C | 95% | 1008.4 hPa | 0.51 mm | - | 0 W/m² | - |
| 1777360576 | 15° C | 95% | 1008.9 hPa | 0.51 mm | - | 0 W/m² | - |
| 1777360272 | 15.56° C | 94% | 1009.3 hPa | 1.27 mm | - | 0 W/m² | - |
| 1777359969 | 15.56° C | 94% | 1009.4 hPa | 2.29 mm | - | 0 W/m² | - |
| 1777359666 | 15.56° C | 94% | 1009.9 hPa | 2.29 mm | - | 0 W/m² | - |
| 1777359363 | 15.56° C | 93% | 1010.1 hPa | 2.29 mm | - | 0 W/m² | - |
| 1777359060 | 15.56° C | 93% | 1010.1 hPa | 3.56 mm | - | 0 W/m² | - |
| 1777358758 | 15.56° C | 92% | 1010.4 hPa | 5.33 mm | - | 0 W/m² | - |
| 1777358455 | 16.11° C | 91% | 1010.4 hPa | 4.32 mm | - | 0 W/m² | - |
| 1777358153 | 16.11° C | 89% | 1010.4 hPa | 4.83 mm | - | 0 W/m² | - |
| 1777357850 | 16.67° C | 87% | 1010.6 hPa | 8.89 mm | - | 0 W/m² | - |
| 1777357547 | 17.22° C | 80% | 1010.8 hPa | 7.87 mm | - | 0 W/m² | - |
| 1777357244 | 17.78° C | 76% | 1010.4 hPa | 3.56 mm | - | 0 W/m² | - |
| 1777356941 | 18.89° C | 71% | 1010.2 hPa | 1.27 mm | - | 0 W/m² | - |
| 1777356638 | 19.44° C | 66% | 1010 hPa | 0 mm | - | 0 W/m² | - |
| 1777356335 | 20° C | 61% | 1009.9 hPa | 0 mm | - | 0 W/m² | - |
| 1777356031 | 20° C | 59% | 1009.7 hPa | 0 mm | - | 0 W/m² | - |
| 1777355729 | 19.44° C | 59% | 1009.4 hPa | 0 mm | - | 0 W/m² | - |
* Rain latest hour (hover to see other rain measurements)
** Current wind speed in m/s (hover to see current wind gust speed)